sensor_id;sensor_type;location;lat;lon;timestamp;pressure;altitude;pressure_sealevel;temperature;humidity
31082;BME280;17737;52.586;13.284;2023-06-26T00:03:09;61757.66;;;-141.22;100.00
31082;BME280;17737;52.586;13.284;2023-06-26T00:07:40;61757.66;;;-141.22;100.00
31082;BME280;17737;52.586;13.284;2023-06-26T00:12:10;61757.66;;;-141.22;100.00
31082;BME280;17737;52.586;13.284;2023-06-26T00:16:39;61757.66;;;-141.22;100.00
31082;BME280;17737;52.586;13.284;2023-06-26T00:21:10;61757.66;;;-141.22;100.00
31082;BME280;17737;52.586;13.284;2023-06-26T00:25:39;61757.66;;;-141.22;100.00
31082;BME280;17737;52.586;13.284;2023-06-26T00:30:10;61757.66;;;-141.22;100.00
31082;BME280;17737;52.586;13.284;2023-06-26T00:34:40;61757.66;;;-141.22;100.00
31082;BME280;17737;52.586;13.284;2023-06-26T00:39:09;61757.66;;;-141.22;100.00
31082;BME280;17737;52.586;13.284;2023-06-26T00:43:38;61757.66;;;-141.22;100.00
31082;BME280;17737;52.586;13.284;2023-06-26T00:48:11;61757.66;;;-141.22;100.00
31082;BME280;17737;52.586;13.284;2023-06-26T00:52:41;61757.66;;;-141.22;100.00
31082;BME280;17737;52.586;13.284;2023-06-26T00:57:11;61757.66;;;-141.22;100.00
31082;BME280;17737;52.586;13.284;2023-06-26T01:01:40;61757.66;;;-141.22;100.00
31082;BME280;17737;52.586;13.284;2023-06-26T01:06:12;61757.66;;;-141.22;100.00
31082;BME280;17737;52.586;13.284;2023-06-26T01:10:44;61757.66;;;-141.22;100.00
31082;BME280;17737;52.586;13.284;2023-06-26T01:15:14;61757.66;;;-141.22;100.00
31082;BME280;17737;52.586;13.284;2023-06-26T01:19:44;61757.66;;;-141.22;100.00
31082;BME280;17737;52.586;13.284;2023-06-26T01:24:17;61757.66;;;-141.22;100.00
31082;BME280;17737;52.586;13.284;2023-06-26T01:28:49;61757.66;;;-141.22;100.00
31082;BME280;17737;52.586;13.284;2023-06-26T01:33:20;61757.66;;;-141.22;100.00
31082;BME280;17737;52.586;13.284;2023-06-26T01:37:49;61757.66;;;-141.22;100.00
31082;BME280;17737;52.586;13.284;2023-06-26T01:42:19;61757.66;;;-141.22;100.00
31082;BME280;17737;52.586;13.284;2023-06-26T01:46:54;61757.66;;;-141.22;100.00
31082;BME280;17737;52.586;13.284;2023-06-26T01:51:30;61757.66;;;-141.22;100.00
31082;BME280;17737;52.586;13.284;2023-06-26T01:56:03;61757.66;;;-141.22;100.00
31082;BME280;17737;52.586;13.284;2023-06-26T02:00:37;61757.66;;;-141.22;100.00
31082;BME280;17737;52.586;13.284;2023-06-26T02:05:08;61757.66;;;-141.22;100.00
31082;BME280;17737;52.586;13.284;2023-06-26T02:09:38;61757.66;;;-141.22;100.00
31082;BME280;17737;52.586;13.284;2023-06-26T02:14:07;61757.66;;;-141.22;100.00
31082;BME280;17737;52.586;13.284;2023-06-26T02:18:36;61757.66;;;-141.22;100.00
31082;BME280;17737;52.586;13.284;2023-06-26T02:23:14;61757.66;;;-141.22;100.00
31082;BME280;17737;52.586;13.284;2023-06-26T02:27:44;61757.66;;;-141.22;100.00
31082;BME280;17737;52.586;13.284;2023-06-26T02:32:13;61757.66;;;-141.22;100.00
31082;BME280;17737;52.586;13.284;2023-06-26T02:36:42;61757.66;;;-141.22;100.00
31082;BME280;17737;52.586;13.284;2023-06-26T02:41:13;61757.66;;;-141.22;100.00
31082;BME280;17737;52.586;13.284;2023-06-26T02:45:42;61757.66;;;-141.22;100.00
31082;BME280;17737;52.586;13.284;2023-06-26T02:50:12;61757.66;;;-141.22;100.00
31082;BME280;17737;52.586;13.284;2023-06-26T02:54:41;61757.66;;;-141.22;100.00
31082;BME280;17737;52.586;13.284;2023-06-26T02:59:13;61757.66;;;-141.22;100.00
31082;BME280;17737;52.586;13.284;2023-06-26T03:03:43;61757.66;;;-141.22;100.00
31082;BME280;17737;52.586;13.284;2023-06-26T03:08:12;61757.66;;;-141.22;100.00
31082;BME280;17737;52.586;13.284;2023-06-26T03:12:42;61757.66;;;-141.22;100.00
31082;BME280;17737;52.586;13.284;2023-06-26T03:17:13;61757.66;;;-141.22;100.00
31082;BME280;17737;52.586;13.284;2023-06-26T03:21:45;61757.66;;;-141.22;100.00
31082;BME280;17737;52.586;13.284;2023-06-26T03:26:15;61757.66;;;-141.22;100.00
31082;BME280;17737;52.586;13.284;2023-06-26T03:30:44;61757.66;;;-141.22;100.00
31082;BME280;17737;52.586;13.284;2023-06-26T03:35:15;61757.66;;;-141.22;100.00
31082;BME280;17737;52.586;13.284;2023-06-26T03:39:44;61757.66;;;-141.22;100.00
31082;BME280;17737;52.586;13.284;2023-06-26T03:44:14;61757.66;;;-141.22;100.00
31082;BME280;17737;52.586;13.284;2023-06-26T03:48:43;61757.66;;;-141.22;100.00
31082;BME280;17737;52.586;13.284;2023-06-26T03:53:14;61757.66;;;-141.22;100.00
31082;BME280;17737;52.586;13.284;2023-06-26T03:57:43;61757.66;;;-141.22;100.00
31082;BME280;17737;52.586;13.284;2023-06-26T04:02:13;61757.66;;;-141.22;100.00
31082;BME280;17737;52.586;13.284;2023-06-26T04:06:42;61757.66;;;-141.22;100.00
31082;BME280;17737;52.586;13.284;2023-06-26T04:11:13;61757.66;;;-141.22;100.00
31082;BME280;17737;52.586;13.284;2023-06-26T04:15:42;61757.66;;;-141.22;100.00
31082;BME280;17737;52.586;13.284;2023-06-26T04:20:12;61757.66;;;-141.22;100.00
31082;BME280;17737;52.586;13.284;2023-06-26T04:24:41;61757.66;;;-141.22;100.00
31082;BME280;17737;52.586;13.284;2023-06-26T04:29:13;61757.66;;;-141.22;100.00
31082;BME280;17737;52.586;13.284;2023-06-26T04:33:42;61757.66;;;-141.22;100.00
31082;BME280;17737;52.586;13.284;2023-06-26T04:38:13;61757.66;;;-141.22;100.00
31082;BME280;17737;52.586;13.284;2023-06-26T04:42:42;61757.66;;;-141.22;100.00
31082;BME280;17737;52.586;13.284;2023-06-26T04:47:12;61757.66;;;-141.22;100.00
31082;BME280;17737;52.586;13.284;2023-06-26T04:51:42;61757.66;;;-141.22;100.00
31082;BME280;17737;52.586;13.284;2023-06-26T04:56:11;61757.66;;;-141.22;100.00
31082;BME280;17737;52.586;13.284;2023-06-26T05:00:43;61757.66;;;-141.22;100.00
31082;BME280;17737;52.586;13.284;2023-06-26T05:05:14;61757.66;;;-141.22;100.00
31082;BME280;17737;52.586;13.284;2023-06-26T05:09:44;61757.66;;;-141.22;100.00
31082;BME280;17737;52.586;13.284;2023-06-26T05:14:13;61757.66;;;-141.22;100.00
31082;BME280;17737;52.586;13.284;2023-06-26T05:18:43;61757.66;;;-141.22;100.00
31082;BME280;17737;52.586;13.284;2023-06-26T05:23:15;61757.66;;;-141.22;100.00
31082;BME280;17737;52.586;13.284;2023-06-26T05:27:48;61757.66;;;-141.22;100.00
31082;BME280;17737;52.586;13.284;2023-06-26T05:32:18;61757.66;;;-141.22;100.00
31082;BME280;17737;52.586;13.284;2023-06-26T05:36:50;61757.66;;;-141.22;100.00
31082;BME280;17737;52.586;13.284;2023-06-26T05:41:22;61757.66;;;-141.22;100.00
31082;BME280;17737;52.586;13.284;2023-06-26T05:45:51;61757.66;;;-141.22;100.00
31082;BME280;17737;52.586;13.284;2023-06-26T05:50:21;61757.66;;;-141.22;100.00
31082;BME280;17737;52.586;13.284;2023-06-26T05:54:50;61757.66;;;-141.22;100.00
31082;BME280;17737;52.586;13.284;2023-06-26T05:59:22;61757.66;;;-141.22;100.00
31082;BME280;17737;52.586;13.284;2023-06-26T06:03:52;61757.66;;;-141.22;100.00
31082;BME280;17737;52.586;13.284;2023-06-26T06:08:21;61757.66;;;-141.22;100.00
31082;BME280;17737;52.586;13.284;2023-06-26T06:12:50;61757.66;;;-141.22;100.00
31082;BME280;17737;52.586;13.284;2023-06-26T06:17:21;61757.66;;;-141.22;100.00
31082;BME280;17737;52.586;13.284;2023-06-26T06:21:51;61757.66;;;-141.22;100.00
31082;BME280;17737;52.586;13.284;2023-06-26T06:26:20;61757.66;;;-141.22;100.00
31082;BME280;17737;52.586;13.284;2023-06-26T06:30:49;61757.66;;;-141.22;100.00
31082;BME280;17737;52.586;13.284;2023-06-26T06:35:20;61757.66;;;-141.22;100.00
31082;BME280;17737;52.586;13.284;2023-06-26T06:39:49;61757.66;;;-141.22;100.00
31082;BME280;17737;52.586;13.284;2023-06-26T06:44:19;61757.66;;;-141.22;100.00
31082;BME280;17737;52.586;13.284;2023-06-26T06:48:49;61757.66;;;-141.22;100.00
31082;BME280;17737;52.586;13.284;2023-06-26T06:53:20;61757.66;;;-141.22;100.00
31082;BME280;17737;52.586;13.284;2023-06-26T06:57:49;61757.66;;;-141.22;100.00
31082;BME280;17737;52.586;13.284;2023-06-26T07:02:19;61757.66;;;-141.22;100.00
31082;BME280;17737;52.586;13.284;2023-06-26T07:06:48;61757.66;;;-141.22;100.00
31082;BME280;17737;52.586;13.284;2023-06-26T07:11:19;61757.66;;;-141.22;100.00
31082;BME280;17737;52.586;13.284;2023-06-26T07:15:48;61757.66;;;-141.22;100.00
31082;BME280;17737;52.586;13.284;2023-06-26T07:20:18;61757.66;;;-141.22;100.00
31082;BME280;17737;52.586;13.284;2023-06-26T07:24:50;61757.66;;;-141.22;100.00
31082;BME280;17737;52.586;13.284;2023-06-26T07:29:21;61757.66;;;-141.22;100.00
31082;BME280;17737;52.586;13.284;2023-06-26T07:33:50;61757.66;;;-141.22;100.00
31082;BME280;17737;52.586;13.284;2023-06-26T07:38:20;61757.66;;;-141.22;100.00
31082;BME280;17737;52.586;13.284;2023-06-26T07:42:49;61757.66;;;-141.22;100.00
31082;BME280;17737;52.586;13.284;2023-06-26T07:47:19;61757.66;;;-141.22;100.00
31082;BME280;17737;52.586;13.284;2023-06-26T07:51:49;61757.66;;;-141.22;100.00
31082;BME280;17737;52.586;13.284;2023-06-26T07:56:18;61757.66;;;-141.22;100.00
31082;BME280;17737;52.586;13.284;2023-06-26T08:00:48;61757.66;;;-141.22;100.00
31082;BME280;17737;52.586;13.284;2023-06-26T08:05:20;61757.66;;;-141.22;100.00
31082;BME280;17737;52.586;13.284;2023-06-26T08:09:51;61757.66;;;-141.22;100.00
31082;BME280;17737;52.586;13.284;2023-06-26T08:14:20;61757.66;;;-141.22;100.00
31082;BME280;17737;52.586;13.284;2023-06-26T08:18:50;61757.66;;;-141.22;100.00
31082;BME280;17737;52.586;13.284;2023-06-26T08:23:22;61757.66;;;-141.22;100.00
31082;BME280;17737;52.586;13.284;2023-06-26T08:27:51;61757.66;;;-141.22;100.00
31082;BME280;17737;52.586;13.284;2023-06-26T08:32:20;61757.66;;;-141.22;100.00
31082;BME280;17737;52.586;13.284;2023-06-26T08:36:50;61757.66;;;-141.22;100.00
31082;BME280;17737;52.586;13.284;2023-06-26T08:41:21;61757.66;;;-141.22;100.00
31082;BME280;17737;52.586;13.284;2023-06-26T08:45:51;61757.66;;;-141.22;100.00
31082;BME280;17737;52.586;13.284;2023-06-26T08:50:25;61757.66;;;-141.22;100.00
31082;BME280;17737;52.586;13.284;2023-06-26T08:54:58;61757.66;;;-141.22;100.00
31082;BME280;17737;52.586;13.284;2023-06-26T08:59:29;61757.66;;;-141.22;100.00
31082;BME280;17737;52.586;13.284;2023-06-26T09:03:59;61757.66;;;-141.22;100.00
31082;BME280;17737;52.586;13.284;2023-06-26T09:08:29;61757.66;;;-141.22;100.00
31082;BME280;17737;52.586;13.284;2023-06-26T09:12:59;61757.66;;;-141.22;100.00
31082;BME280;17737;52.586;13.284;2023-06-26T09:17:38;61757.66;;;-141.22;100.00
31082;BME280;17737;52.586;13.284;2023-06-26T09:22:10;61757.66;;;-141.22;100.00
31082;BME280;17737;52.586;13.284;2023-06-26T09:26:40;61757.66;;;-141.22;100.00
31082;BME280;17737;52.586;13.284;2023-06-26T09:31:10;61757.66;;;-141.22;100.00
31082;BME280;17737;52.586;13.284;2023-06-26T09:35:42;61757.66;;;-141.22;100.00
31082;BME280;17737;52.586;13.284;2023-06-26T09:40:13;61757.66;;;-141.22;100.00
31082;BME280;17737;52.586;13.284;2023-06-26T09:44:46;61757.66;;;-141.22;100.00
31082;BME280;17737;52.586;13.284;2023-06-26T09:49:17;61757.66;;;-141.22;100.00
31082;BME280;17737;52.586;13.284;2023-06-26T09:53:54;61757.66;;;-141.22;100.00
31082;BME280;17737;52.586;13.284;2023-06-26T09:58:25;61757.66;;;-141.22;100.00
31082;BME280;17737;52.586;13.284;2023-06-26T10:02:57;61757.66;;;-141.22;100.00
31082;BME280;17737;52.586;13.284;2023-06-26T10:07:33;61757.66;;;-141.22;100.00
31082;BME280;17737;52.586;13.284;2023-06-26T10:12:10;61757.66;;;-141.22;100.00
31082;BME280;17737;52.586;13.284;2023-06-26T10:16:42;61757.66;;;-141.22;100.00
31082;BME280;17737;52.586;13.284;2023-06-26T10:21:13;61757.66;;;-141.22;100.00
31082;BME280;17737;52.586;13.284;2023-06-26T10:25:45;61757.66;;;-141.22;100.00
31082;BME280;17737;52.586;13.284;2023-06-26T10:30:21;61757.66;;;-141.22;100.00
31082;BME280;17737;52.586;13.284;2023-06-26T10:34:52;61757.66;;;-141.22;100.00
31082;BME280;17737;52.586;13.284;2023-06-26T10:39:45;61757.66;;;-141.22;100.00
31082;BME280;17737;52.586;13.284;2023-06-26T10:44:16;61757.66;;;-141.22;100.00
31082;BME280;17737;52.586;13.284;2023-06-26T10:48:56;61757.66;;;-141.22;100.00
31082;BME280;17737;52.586;13.284;2023-06-26T10:53:36;61757.66;;;-141.22;100.00
31082;BME280;17737;52.586;13.284;2023-06-26T10:58:10;61757.66;;;-141.22;100.00
31082;BME280;17737;52.586;13.284;2023-06-26T11:02:57;61757.66;;;-141.22;100.00
31082;BME280;17737;52.586;13.284;2023-06-26T11:07:28;61757.66;;;-141.22;100.00
31082;BME280;17737;52.586;13.284;2023-06-26T11:11:58;61757.66;;;-141.22;100.00
31082;BME280;17737;52.586;13.284;2023-06-26T11:16:29;61757.66;;;-141.22;100.00
31082;BME280;17737;52.586;13.284;2023-06-26T11:21:04;61757.66;;;-141.22;100.00
31082;BME280;17737;52.586;13.284;2023-06-26T11:25:34;61757.66;;;-141.22;100.00
31082;BME280;17737;52.586;13.284;2023-06-26T11:30:05;61757.66;;;-141.22;100.00
31082;BME280;17737;52.586;13.284;2023-06-26T11:34:34;61757.66;;;-141.22;100.00
31082;BME280;17737;52.586;13.284;2023-06-26T11:39:05;61757.66;;;-141.22;100.00
31082;BME280;17737;52.586;13.284;2023-06-26T11:43:35;61757.66;;;-141.22;100.00
31082;BME280;17737;52.586;13.284;2023-06-26T11:48:04;61757.66;;;-141.22;100.00
31082;BME280;17737;52.586;13.284;2023-06-26T11:52:34;61757.66;;;-141.22;100.00
31082;BME280;17737;52.586;13.284;2023-06-26T11:57:07;61757.66;;;-141.22;100.00
31082;BME280;17737;52.586;13.284;2023-06-26T12:01:40;61757.66;;;-141.22;100.00
31082;BME280;17737;52.586;13.284;2023-06-26T12:06:10;61757.66;;;-141.22;100.00
31082;BME280;17737;52.586;13.284;2023-06-26T12:10:41;61757.66;;;-141.22;100.00
31082;BME280;17737;52.586;13.284;2023-06-26T12:15:15;61757.66;;;-141.22;100.00
31082;BME280;17737;52.586;13.284;2023-06-26T12:19:45;61757.66;;;-141.22;100.00
31082;BME280;17737;52.586;13.284;2023-06-26T12:24:16;61757.66;;;-141.22;100.00
31082;BME280;17737;52.586;13.284;2023-06-26T12:28:46;61757.66;;;-141.22;100.00
31082;BME280;17737;52.586;13.284;2023-06-26T12:33:17;61757.66;;;-141.22;100.00
31082;BME280;17737;52.586;13.284;2023-06-26T12:37:47;61757.66;;;-141.22;100.00
31082;BME280;17737;52.586;13.284;2023-06-26T12:42:17;61757.66;;;-141.22;100.00
31082;BME280;17737;52.586;13.284;2023-06-26T12:46:47;61757.66;;;-141.22;100.00
31082;BME280;17737;52.586;13.284;2023-06-26T12:51:19;61757.66;;;-141.22;100.00
31082;BME280;17737;52.586;13.284;2023-06-26T12:55:50;61757.66;;;-141.22;100.00
31082;BME280;17737;52.586;13.284;2023-06-26T13:00:19;61757.66;;;-141.22;100.00
31082;BME280;17737;52.586;13.284;2023-06-26T13:04:49;61757.66;;;-141.22;100.00
31082;BME280;17737;52.586;13.284;2023-06-26T13:09:20;61757.66;;;-141.22;100.00
31082;BME280;17737;52.586;13.284;2023-06-26T13:13:52;61757.66;;;-141.22;100.00
31082;BME280;17737;52.586;13.284;2023-06-26T13:18:21;61757.66;;;-141.22;100.00
31082;BME280;17737;52.586;13.284;2023-06-26T13:22:51;61757.66;;;-141.22;100.00
31082;BME280;17737;52.586;13.284;2023-06-26T13:27:23;61757.66;;;-141.22;100.00
31082;BME280;17737;52.586;13.284;2023-06-26T13:31:53;61757.66;;;-141.22;100.00
31082;BME280;17737;52.586;13.284;2023-06-26T13:36:22;61757.66;;;-141.22;100.00
31082;BME280;17737;52.586;13.284;2023-06-26T13:40:52;61757.66;;;-141.22;100.00
31082;BME280;17737;52.586;13.284;2023-06-26T13:45:24;61757.66;;;-141.22;100.00
31082;BME280;17737;52.586;13.284;2023-06-26T13:49:54;61757.66;;;-141.22;100.00
31082;BME280;17737;52.586;13.284;2023-06-26T13:54:24;61757.66;;;-141.22;100.00
31082;BME280;17737;52.586;13.284;2023-06-26T13:58:53;61757.66;;;-141.22;100.00
31082;BME280;17737;52.586;13.284;2023-06-26T14:03:25;61757.66;;;-141.22;100.00
31082;BME280;17737;52.586;13.284;2023-06-26T14:07:55;61757.66;;;-141.22;100.00
31082;BME280;17737;52.586;13.284;2023-06-26T14:12:25;61757.66;;;-141.22;100.00
31082;BME280;17737;52.586;13.284;2023-06-26T14:16:54;61757.66;;;-141.22;100.00
31082;BME280;17737;52.586;13.284;2023-06-26T14:21:25;61757.66;;;-141.22;100.00
31082;BME280;17737;52.586;13.284;2023-06-26T14:25:55;61757.66;;;-141.22;100.00
31082;BME280;17737;52.586;13.284;2023-06-26T14:30:24;61757.66;;;-141.22;100.00
31082;BME280;17737;52.586;13.284;2023-06-26T14:34:53;61757.66;;;-141.22;100.00
31082;BME280;17737;52.586;13.284;2023-06-26T14:39:24;61757.66;;;-141.22;100.00
31082;BME280;17737;52.586;13.284;2023-06-26T14:43:54;61757.66;;;-141.22;100.00
31082;BME280;17737;52.586;13.284;2023-06-26T14:48:25;61757.66;;;-141.22;100.00
31082;BME280;17737;52.586;13.284;2023-06-26T14:52:57;61757.66;;;-141.22;100.00
31082;BME280;17737;52.586;13.284;2023-06-26T14:57:27;61757.66;;;-141.22;100.00
31082;BME280;17737;52.586;13.284;2023-06-26T15:01:57;61757.66;;;-141.22;100.00
31082;BME280;17737;52.586;13.284;2023-06-26T15:06:26;61757.66;;;-141.22;100.00
31082;BME280;17737;52.586;13.284;2023-06-26T15:10:56;61757.66;;;-141.22;100.00
31082;BME280;17737;52.586;13.284;2023-06-26T15:15:27;61757.66;;;-141.22;100.00
31082;BME280;17737;52.586;13.284;2023-06-26T16:19:40;100796.88;;;21.62;100.00
31082;BME280;17737;52.586;13.284;2023-06-26T16:22:08;100798.66;;;21.45;100.00
31082;BME280;17737;52.586;13.284;2023-06-26T16:24:36;100799.34;;;21.52;100.00
31082;BME280;17737;52.586;13.284;2023-06-26T16:27:05;100798.19;;;21.48;100.00
31082;BME280;17737;52.586;13.284;2023-06-26T16:29:33;100798.78;;;21.96;100.00
31082;BME280;17737;52.586;13.284;2023-06-26T16:32:02;100799.25;;;21.70;100.00
31082;BME280;17737;52.586;13.284;2023-06-26T16:34:32;100806.16;;;21.38;100.00
31082;BME280;17737;52.586;13.284;2023-06-26T16:39:38;100799.25;;;21.70;100.00
31082;BME280;17737;52.586;13.284;2023-06-26T16:42:24;100806.78;;;21.40;100.00
31082;BME280;17737;52.586;13.284;2023-06-26T16:44:55;100809.16;;;21.48;100.00
31082;BME280;17737;52.586;13.284;2023-06-26T16:48:02;100799.13;;;21.65;100.00
31082;BME280;17737;52.586;13.284;2023-06-26T16:50:31;100804.09;;;21.22;100.00
31082;BME280;17737;52.586;13.284;2023-06-26T16:52:59;100799.81;;;21.14;100.00
31082;BME280;17737;52.586;13.284;2023-06-26T16:55:29;100807.75;;;21.80;100.00
31082;BME280;17737;52.586;13.284;2023-06-26T16:57:57;100800.03;;;22.28;100.00
31082;BME280;17737;52.586;13.284;2023-06-26T17:00:25;100799.84;;;20.85;100.00
31082;BME280;17737;52.586;13.284;2023-06-26T17:02:53;100795.34;;;20.61;100.00
31082;BME280;17737;52.586;13.284;2023-06-26T17:05:21;100795.53;;;20.48;100.00
31082;BME280;17737;52.586;13.284;2023-06-26T17:07:49;100802.44;;;20.80;100.00
31082;BME280;17737;52.586;13.284;2023-06-26T17:10:17;100805.66;;;20.77;100.00
31082;BME280;17737;52.586;13.284;2023-06-26T17:12:46;100821.34;;;20.70;100.00
31082;BME280;17737;52.586;13.284;2023-06-26T17:15:14;100818.28;;;20.89;100.00
31082;BME280;17737;52.586;13.284;2023-06-26T17:17:44;100824.38;;;21.32;100.00
31082;BME280;17737;52.586;13.284;2023-06-26T17:20:12;100816.84;;;21.16;100.00
31082;BME280;17737;52.586;13.284;2023-06-26T17:22:40;100813.91;;;21.18;100.00
31082;BME280;17737;52.586;13.284;2023-06-26T17:25:09;100818.16;;;21.14;100.00
31082;BME280;17737;52.586;13.284;2023-06-26T17:27:38;100812.91;;;21.01;100.00
31082;BME280;17737;52.586;13.284;2023-06-26T17:30:08;100818.22;;;21.95;100.00
31082;BME280;17737;52.586;13.284;2023-06-26T17:32:36;100818.41;;;23.12;100.00
31082;BME280;17737;52.586;13.284;2023-06-26T17:35:06;100814.34;;;24.41;100.00
31082;BME280;17737;52.586;13.284;2023-06-26T17:37:34;100828.09;;;21.26;100.00
31082;BME280;17737;52.586;13.284;2023-06-26T17:40:03;100824.47;;;20.85;100.00
31082;BME280;17737;52.586;13.284;2023-06-26T17:42:36;100834.47;;;21.09;100.00
31082;BME280;17737;52.586;13.284;2023-06-26T17:45:10;100845.34;;;21.27;100.00
31082;BME280;17737;52.586;13.284;2023-06-26T17:47:39;100848.09;;;21.27;100.00
31082;BME280;17737;52.586;13.284;2023-06-26T17:50:09;100849.59;;;21.11;100.00
31082;BME280;17737;52.586;13.284;2023-06-26T17:52:40;100841.19;;;21.48;100.00
31082;BME280;17737;52.586;13.284;2023-06-26T17:55:09;100848.78;;;20.93;100.00
31082;BME280;17737;52.586;13.284;2023-06-26T17:57:38;100853.81;;;20.96;100.00
31082;BME280;17737;52.586;13.284;2023-06-26T18:00:07;100864.00;;;21.07;100.00
31082;BME280;17737;52.586;13.284;2023-06-26T18:02:38;100871.78;;;21.86;100.00
31082;BME280;17737;52.586;13.284;2023-06-26T18:05:08;100871.69;;;21.28;100.00
31082;BME280;17737;52.586;13.284;2023-06-26T18:07:37;100872.91;;;21.43;100.00
31082;BME280;17737;52.586;13.284;2023-06-26T18:10:26;100867.06;;;21.40;100.00
31082;BME280;17737;52.586;13.284;2023-06-26T18:12:54;100871.00;;;21.44;100.00
31082;BME280;17737;52.586;13.284;2023-06-26T18:15:24;100872.00;;;20.61;100.00
31082;BME280;17737;52.586;13.284;2023-06-26T18:17:52;100881.09;;;20.73;100.00
31082;BME280;17737;52.586;13.284;2023-06-26T18:20:20;100888.22;;;20.44;100.00
31082;BME280;17737;52.586;13.284;2023-06-26T18:22:48;100895.69;;;20.12;100.00
31082;BME280;17737;52.586;13.284;2023-06-26T18:25:18;100884.19;;;20.29;100.00
31082;BME280;17737;52.586;13.284;2023-06-26T18:27:46;100892.72;;;20.20;100.00
31082;BME280;17737;52.586;13.284;2023-06-26T18:30:14;100881.84;;;20.32;100.00
31082;BME280;17737;52.586;13.284;2023-06-26T18:32:43;61757.66;;;-141.22;100.00
31082;BME280;17737;52.586;13.284;2023-06-26T18:35:11;61757.66;;;-141.22;100.00
31082;BME280;17737;52.586;13.284;2023-06-26T18:37:39;61757.66;;;-141.22;100.00
31082;BME280;17737;52.586;13.284;2023-06-26T18:40:08;61757.66;;;-141.22;100.00
31082;BME280;17737;52.586;13.284;2023-06-26T18:42:41;61757.66;;;-141.22;100.00
31082;BME280;17737;52.586;13.284;2023-06-26T18:45:10;100893.09;;;19.99;100.00
31082;BME280;17737;52.586;13.284;2023-06-26T18:47:39;100895.75;;;19.88;100.00
31082;BME280;17737;52.586;13.284;2023-06-26T18:50:09;100897.31;;;19.77;100.00
31082;BME280;17737;52.586;13.284;2023-06-26T18:52:37;100893.69;;;19.83;100.00
31082;BME280;17737;52.586;13.284;2023-06-26T18:55:06;100898.38;;;19.76;100.00
31082;BME280;17737;52.586;13.284;2023-06-26T18:57:35;100897.69;;;19.56;100.00
31082;BME280;17737;52.586;13.284;2023-06-26T19:00:05;100897.50;;;19.58;100.00
31082;BME280;17737;52.586;13.284;2023-06-26T19:02:35;100894.97;;;19.81;100.00
31082;BME280;17737;52.586;13.284;2023-06-26T19:05:03;100899.47;;;20.18;100.00
31082;BME280;17737;52.586;13.284;2023-06-26T19:07:33;100902.72;;;20.27;100.00
31082;BME280;17737;52.586;13.284;2023-06-26T19:10:01;100884.41;;;20.27;100.00
31082;BME280;17737;52.586;13.284;2023-06-26T19:12:34;100879.41;;;20.24;83.18
31082;BME280;17737;52.586;13.284;2023-06-26T19:15:02;100881.19;;;20.12;78.53
31082;BME280;17737;52.586;13.284;2023-06-26T19:17:34;100890.03;;;20.14;77.03
31082;BME280;17737;52.586;13.284;2023-06-26T19:20:02;100903.44;;;19.97;75.08
31082;BME280;17737;52.586;13.284;2023-06-26T19:22:32;100904.13;;;19.93;73.97
31082;BME280;17737;52.586;13.284;2023-06-26T19:25:00;100896.59;;;19.88;73.32
31082;BME280;17737;52.586;13.284;2023-06-26T19:27:29;100899.38;;;19.82;72.43
31082;BME280;17737;52.586;13.284;2023-06-26T19:29:57;100892.31;;;19.74;72.46
31082;BME280;17737;52.586;13.284;2023-06-26T19:32:25;100899.88;;;19.72;71.05
31082;BME280;17737;52.586;13.284;2023-06-26T19:34:53;100905.34;;;19.72;70.87
31082;BME280;17737;52.586;13.284;2023-06-26T19:37:21;100915.91;;;19.69;72.18
31082;BME280;17737;52.586;13.284;2023-06-26T19:39:50;100931.03;;;19.71;70.53
31082;BME280;17737;52.586;13.284;2023-06-26T19:42:19;100928.53;;;19.70;68.55
31082;BME280;17737;52.586;13.284;2023-06-26T19:44:48;100925.81;;;19.63;69.30
31082;BME280;17737;52.586;13.284;2023-06-26T19:47:16;100934.03;;;19.63;69.59
31082;BME280;17737;52.586;13.284;2023-06-26T19:49:44;100928.63;;;19.57;69.60
31082;BME280;17737;52.586;13.284;2023-06-26T19:52:12;100925.50;;;19.53;69.81
31082;BME280;17737;52.586;13.284;2023-06-26T19:54:40;100924.22;;;19.56;70.17
31082;BME280;17737;52.586;13.284;2023-06-26T19:57:10;100929.84;;;19.61;66.45
31082;BME280;17737;52.586;13.284;2023-06-26T19:59:38;100930.31;;;19.58;67.02
31082;BME280;17737;52.586;13.284;2023-06-26T20:02:06;100934.97;;;19.51;66.07
31082;BME280;17737;52.586;13.284;2023-06-26T20:04:34;100933.50;;;19.48;65.47
31082;BME280;17737;52.586;13.284;2023-06-26T20:07:04;100927.44;;;19.46;66.36
31082;BME280;17737;52.586;13.284;2023-06-26T20:09:33;100938.63;;;19.38;65.21
31082;BME280;17737;52.586;13.284;2023-06-26T20:12:01;100944.28;;;19.43;65.02
31082;BME280;17737;52.586;13.284;2023-06-26T20:14:31;100932.78;;;19.35;64.97
31082;BME280;17737;52.586;13.284;2023-06-26T20:16:59;100938.84;;;19.37;65.51
31082;BME280;17737;52.586;13.284;2023-06-26T20:19:28;100938.47;;;19.33;64.22
31082;BME280;17737;52.586;13.284;2023-06-26T20:21:57;100938.06;;;19.30;63.53
31082;BME280;17737;52.586;13.284;2023-06-26T20:24:25;100923.78;;;19.21;63.68
31082;BME280;17737;52.586;13.284;2023-06-26T20:26:57;100931.16;;;19.21;64.24
31082;BME280;17737;52.586;13.284;2023-06-26T20:29:25;100930.28;;;19.27;62.84
31082;BME280;17737;52.586;13.284;2023-06-26T20:31:54;100933.84;;;19.27;61.90